sensor_id;sensor_type;location;lat;lon;timestamp;P1;durP1;ratioP1;P2;durP2;ratioP2
41693;SDS011;27377;50.666;9.150;2023-07-20T00:00:22;3.57;;;1.50;;
41693;SDS011;27377;50.666;9.150;2023-07-20T00:08:45;4.63;;;1.58;;
41693;SDS011;27377;50.666;9.150;2023-07-20T00:11:11;5.10;;;1.67;;
41693;SDS011;27377;50.666;9.150;2023-07-20T00:13:38;4.00;;;1.60;;
41693;SDS011;27377;50.666;9.150;2023-07-20T00:16:04;3.03;;;1.50;;
41693;SDS011;27377;50.666;9.150;2023-07-20T00:18:30;5.53;;;1.67;;
41693;SDS011;27377;50.666;9.150;2023-07-20T00:20:55;3.10;;;1.60;;
41693;SDS011;27377;50.666;9.150;2023-07-20T00:23:21;6.28;;;1.63;;
41693;SDS011;27377;50.666;9.150;2023-07-20T00:25:48;3.35;;;1.50;;
41693;SDS011;27377;50.666;9.150;2023-07-20T00:28:14;3.38;;;1.55;;
41693;SDS011;27377;50.666;9.150;2023-07-20T00:30:40;5.20;;;1.88;;
41693;SDS011;27377;50.666;9.150;2023-07-20T00:33:09;6.43;;;1.60;;
41693;SDS011;27377;50.666;9.150;2023-07-20T00:35:36;3.47;;;1.55;;
41693;SDS011;27377;50.666;9.150;2023-07-20T00:38:03;3.50;;;1.40;;
41693;SDS011;27377;50.666;9.150;2023-07-20T00:40:29;5.25;;;1.80;;
41693;SDS011;27377;50.666;9.150;2023-07-20T00:43:01;3.78;;;1.65;;
41693;SDS011;27377;50.666;9.150;2023-07-20T00:45:28;3.30;;;1.60;;
41693;SDS011;27377;50.666;9.150;2023-07-20T00:47:55;3.85;;;1.80;;
41693;SDS011;27377;50.666;9.150;2023-07-20T00:50:21;4.35;;;1.95;;
41693;SDS011;27377;50.666;9.150;2023-07-20T00:52:48;3.72;;;1.75;;
41693;SDS011;27377;50.666;9.150;2023-07-20T00:55:14;4.43;;;1.90;;
41693;SDS011;27377;50.666;9.150;2023-07-20T00:57:40;4.03;;;1.60;;
41693;SDS011;27377;50.666;9.150;2023-07-20T01:00:06;4.53;;;1.88;;
41693;SDS011;27377;50.666;9.150;2023-07-20T01:02:33;3.35;;;1.70;;
41693;SDS011;27377;50.666;9.150;2023-07-20T01:04:58;5.07;;;1.70;;
41693;SDS011;27377;50.666;9.150;2023-07-20T01:07:25;5.20;;;1.80;;
41693;SDS011;27377;50.666;9.150;2023-07-20T01:09:59;6.22;;;1.60;;
41693;SDS011;27377;50.666;9.150;2023-07-20T01:12:27;3.97;;;1.70;;
41693;SDS011;27377;50.666;9.150;2023-07-20T01:15:01;4.20;;;1.90;;
41693;SDS011;27377;50.666;9.150;2023-07-20T01:17:27;4.40;;;1.83;;
41693;SDS011;27377;50.666;9.150;2023-07-20T01:19:53;3.33;;;1.70;;
41693;SDS011;27377;50.666;9.150;2023-07-20T01:27:48;4.13;;;1.95;;
41693;SDS011;27377;50.666;9.150;2023-07-20T01:33:24;4.97;;;1.80;;
41693;SDS011;27377;50.666;9.150;2023-07-20T01:35:57;4.85;;;1.92;;
41693;SDS011;27377;50.666;9.150;2023-07-20T01:38:25;5.15;;;1.67;;
41693;SDS011;27377;50.666;9.150;2023-07-20T01:40:51;4.65;;;1.80;;
41693;SDS011;27377;50.666;9.150;2023-07-20T01:43:17;4.93;;;1.80;;
41693;SDS011;27377;50.666;9.150;2023-07-20T01:45:58;4.03;;;1.70;;
41693;SDS011;27377;50.666;9.150;2023-07-20T01:48:24;4.30;;;1.85;;
41693;SDS011;27377;50.666;9.150;2023-07-20T01:50:49;2.38;;;1.55;;
41693;SDS011;27377;50.666;9.150;2023-07-20T01:53:15;3.70;;;1.90;;
41693;SDS011;27377;50.666;9.150;2023-07-20T01:55:41;4.00;;;1.70;;
41693;SDS011;27377;50.666;9.150;2023-07-20T01:58:09;6.07;;;1.90;;
41693;SDS011;27377;50.666;9.150;2023-07-20T02:00:58;4.40;;;1.70;;
41693;SDS011;27377;50.666;9.150;2023-07-20T02:03:31;4.35;;;1.83;;
41693;SDS011;27377;50.666;9.150;2023-07-20T02:06:18;5.47;;;1.70;;
41693;SDS011;27377;50.666;9.150;2023-07-20T02:08:49;3.97;;;1.70;;
41693;SDS011;27377;50.666;9.150;2023-07-20T02:11:18;3.13;;;1.60;;
41693;SDS011;27377;50.666;9.150;2023-07-20T02:13:43;3.95;;;1.83;;
41693;SDS011;27377;50.666;9.150;2023-07-20T02:16:09;3.53;;;1.77;;
41693;SDS011;27377;50.666;9.150;2023-07-20T02:18:37;7.10;;;1.90;;
41693;SDS011;27377;50.666;9.150;2023-07-20T02:21:05;4.20;;;2.03;;
41693;SDS011;27377;50.666;9.150;2023-07-20T02:23:31;5.73;;;2.20;;
41693;SDS011;27377;50.666;9.150;2023-07-20T02:25:57;4.90;;;2.05;;
41693;SDS011;27377;50.666;9.150;2023-07-20T02:28:27;4.97;;;2.10;;
41693;SDS011;27377;50.666;9.150;2023-07-20T02:30:54;5.30;;;2.00;;
41693;SDS011;27377;50.666;9.150;2023-07-20T02:33:19;4.70;;;1.90;;
41693;SDS011;27377;50.666;9.150;2023-07-20T02:35:45;5.35;;;2.40;;
41693;SDS011;27377;50.666;9.150;2023-07-20T02:38:11;3.23;;;1.70;;
41693;SDS011;27377;50.666;9.150;2023-07-20T02:40:40;4.82;;;2.00;;
41693;SDS011;27377;50.666;9.150;2023-07-20T02:43:09;3.53;;;2.13;;
41693;SDS011;27377;50.666;9.150;2023-07-20T02:45:35;3.65;;;1.90;;
41693;SDS011;27377;50.666;9.150;2023-07-20T02:48:00;5.18;;;2.25;;
41693;SDS011;27377;50.666;9.150;2023-07-20T02:50:28;4.57;;;2.20;;
41693;SDS011;27377;50.666;9.150;2023-07-20T02:52:53;5.40;;;2.40;;
41693;SDS011;27377;50.666;9.150;2023-07-20T02:55:19;6.50;;;2.35;;
41693;SDS011;27377;50.666;9.150;2023-07-20T02:57:51;5.18;;;2.00;;
41693;SDS011;27377;50.666;9.150;2023-07-20T03:00:17;4.47;;;1.77;;
41693;SDS011;27377;50.666;9.150;2023-07-20T03:02:47;4.45;;;1.73;;
41693;SDS011;27377;50.666;9.150;2023-07-20T03:05:30;2.67;;;1.40;;
41693;SDS011;27377;50.666;9.150;2023-07-20T03:07:56;2.33;;;1.30;;
41693;SDS011;27377;50.666;9.150;2023-07-20T03:10:25;4.53;;;1.58;;
41693;SDS011;27377;50.666;9.150;2023-07-20T03:12:57;4.68;;;1.90;;
41693;SDS011;27377;50.666;9.150;2023-07-20T03:15:39;4.95;;;1.90;;
41693;SDS011;27377;50.666;9.150;2023-07-20T03:18:05;5.93;;;1.60;;
41693;SDS011;27377;50.666;9.150;2023-07-20T03:20:31;3.28;;;1.80;;
41693;SDS011;27377;50.666;9.150;2023-07-20T03:22:57;4.85;;;1.70;;
41693;SDS011;27377;50.666;9.150;2023-07-20T03:25:23;4.63;;;2.00;;
41693;SDS011;27377;50.666;9.150;2023-07-20T03:27:48;4.78;;;2.28;;
41693;SDS011;27377;50.666;9.150;2023-07-20T03:30:14;3.47;;;2.10;;
41693;SDS011;27377;50.666;9.150;2023-07-20T03:32:40;3.38;;;1.90;;
41693;SDS011;27377;50.666;9.150;2023-07-20T03:35:09;3.87;;;2.07;;
41693;SDS011;27377;50.666;9.150;2023-07-20T03:37:46;3.88;;;2.08;;
41693;SDS011;27377;50.666;9.150;2023-07-20T03:40:18;5.00;;;1.95;;
41693;SDS011;27377;50.666;9.150;2023-07-20T03:42:50;4.63;;;2.20;;
41693;SDS011;27377;50.666;9.150;2023-07-20T03:45:26;5.13;;;2.40;;
41693;SDS011;27377;50.666;9.150;2023-07-20T03:48:10;5.85;;;2.50;;
41693;SDS011;27377;50.666;9.150;2023-07-20T03:51:07;5.70;;;2.40;;
41693;SDS011;27377;50.666;9.150;2023-07-20T03:53:56;5.15;;;2.30;;
41693;SDS011;27377;50.666;9.150;2023-07-20T03:56:27;7.65;;;2.30;;
41693;SDS011;27377;50.666;9.150;2023-07-20T03:59:00;4.38;;;2.20;;
41693;SDS011;27377;50.666;9.150;2023-07-20T04:01:29;4.22;;;2.22;;
41693;SDS011;27377;50.666;9.150;2023-07-20T04:03:58;5.60;;;2.17;;
41693;SDS011;27377;50.666;9.150;2023-07-20T04:06:26;5.50;;;2.13;;
41693;SDS011;27377;50.666;9.150;2023-07-20T04:09:15;4.85;;;2.47;;
41693;SDS011;27377;50.666;9.150;2023-07-20T04:11:44;4.63;;;2.53;;
41693;SDS011;27377;50.666;9.150;2023-07-20T04:14:48;5.53;;;2.55;;
41693;SDS011;27377;50.666;9.150;2023-07-20T04:17:19;5.40;;;2.25;;
41693;SDS011;27377;50.666;9.150;2023-07-20T04:19:48;5.25;;;2.67;;
41693;SDS011;27377;50.666;9.150;2023-07-20T04:22:17;3.57;;;2.40;;
41693;SDS011;27377;50.666;9.150;2023-07-20T04:24:43;6.25;;;2.60;;
41693;SDS011;27377;50.666;9.150;2023-07-20T04:27:09;4.45;;;2.30;;
41693;SDS011;27377;50.666;9.150;2023-07-20T04:29:35;4.80;;;2.23;;
41693;SDS011;27377;50.666;9.150;2023-07-20T04:32:07;5.18;;;2.50;;
41693;SDS011;27377;50.666;9.150;2023-07-20T04:34:36;6.25;;;2.47;;
41693;SDS011;27377;50.666;9.150;2023-07-20T04:37:32;5.15;;;2.95;;
41693;SDS011;27377;50.666;9.150;2023-07-20T04:40:11;4.18;;;2.70;;
41693;SDS011;27377;50.666;9.150;2023-07-20T04:42:44;5.60;;;2.70;;
41693;SDS011;27377;50.666;9.150;2023-07-20T04:45:10;4.95;;;2.72;;
41693;SDS011;27377;50.666;9.150;2023-07-20T04:47:36;4.80;;;2.50;;
41693;SDS011;27377;50.666;9.150;2023-07-20T04:50:02;6.90;;;2.85;;
41693;SDS011;27377;50.666;9.150;2023-07-20T04:52:28;5.55;;;3.15;;
41693;SDS011;27377;50.666;9.150;2023-07-20T04:55:00;6.82;;;3.20;;
41693;SDS011;27377;50.666;9.150;2023-07-20T04:57:54;6.30;;;3.10;;
41693;SDS011;27377;50.666;9.150;2023-07-20T05:00:23;6.47;;;3.30;;
41693;SDS011;27377;50.666;9.150;2023-07-20T05:02:49;8.65;;;3.53;;
41693;SDS011;27377;50.666;9.150;2023-07-20T05:05:17;6.63;;;3.07;;
41693;SDS011;27377;50.666;9.150;2023-07-20T05:07:43;9.73;;;3.45;;
41693;SDS011;27377;50.666;9.150;2023-07-20T05:10:09;6.25;;;2.92;;
41693;SDS011;27377;50.666;9.150;2023-07-20T05:12:36;5.55;;;3.00;;
41693;SDS011;27377;50.666;9.150;2023-07-20T05:15:02;6.73;;;3.37;;
41693;SDS011;27377;50.666;9.150;2023-07-20T05:17:29;8.88;;;3.30;;
41693;SDS011;27377;50.666;9.150;2023-07-20T05:19:54;7.30;;;3.20;;
41693;SDS011;27377;50.666;9.150;2023-07-20T05:22:20;5.93;;;3.13;;
41693;SDS011;27377;50.666;9.150;2023-07-20T05:24:46;6.67;;;2.80;;
41693;SDS011;27377;50.666;9.150;2023-07-20T05:27:12;6.67;;;2.97;;
41693;SDS011;27377;50.666;9.150;2023-07-20T05:29:43;7.57;;;2.85;;
41693;SDS011;27377;50.666;9.150;2023-07-20T05:32:12;6.07;;;3.13;;
41693;SDS011;27377;50.666;9.150;2023-07-20T05:34:38;5.80;;;2.90;;
41693;SDS011;27377;50.666;9.150;2023-07-20T05:37:05;6.22;;;3.00;;
41693;SDS011;27377;50.666;9.150;2023-07-20T05:39:32;6.80;;;3.03;;
41693;SDS011;27377;50.666;9.150;2023-07-20T05:41:58;5.68;;;2.85;;
41693;SDS011;27377;50.666;9.150;2023-07-20T05:44:24;7.40;;;3.30;;
41693;SDS011;27377;50.666;9.150;2023-07-20T05:46:49;7.70;;;3.47;;
41693;SDS011;27377;50.666;9.150;2023-07-20T05:49:15;6.83;;;3.40;;
41693;SDS011;27377;50.666;9.150;2023-07-20T05:54:17;6.50;;;3.47;;
41693;SDS011;27377;50.666;9.150;2023-07-20T05:56:42;7.75;;;3.53;;
41693;SDS011;27377;50.666;9.150;2023-07-20T05:59:08;6.70;;;3.33;;
41693;SDS011;27377;50.666;9.150;2023-07-20T06:01:34;7.22;;;3.15;;
41693;SDS011;27377;50.666;9.150;2023-07-20T06:03:59;7.93;;;3.72;;
41693;SDS011;27377;50.666;9.150;2023-07-20T06:06:25;6.40;;;3.28;;
41693;SDS011;27377;50.666;9.150;2023-07-20T06:08:50;7.75;;;3.30;;
41693;SDS011;27377;50.666;9.150;2023-07-20T06:14:10;7.10;;;3.67;;
41693;SDS011;27377;50.666;9.150;2023-07-20T06:16:36;6.63;;;4.00;;
41693;SDS011;27377;50.666;9.150;2023-07-20T06:19:01;8.05;;;4.03;;
41693;SDS011;27377;50.666;9.150;2023-07-20T06:21:27;10.45;;;4.05;;
41693;SDS011;27377;50.666;9.150;2023-07-20T06:23:52;8.50;;;3.85;;
41693;SDS011;27377;50.666;9.150;2023-07-20T06:26:19;10.20;;;4.22;;
41693;SDS011;27377;50.666;9.150;2023-07-20T06:28:45;8.52;;;4.30;;
41693;SDS011;27377;50.666;9.150;2023-07-20T06:33:55;8.73;;;4.13;;
41693;SDS011;27377;50.666;9.150;2023-07-20T06:36:20;8.60;;;4.10;;
41693;SDS011;27377;50.666;9.150;2023-07-20T06:38:46;11.60;;;5.00;;
41693;SDS011;27377;50.666;9.150;2023-07-20T06:41:11;8.07;;;4.50;;
41693;SDS011;27377;50.666;9.150;2023-07-20T06:43:37;9.15;;;4.90;;
41693;SDS011;27377;50.666;9.150;2023-07-20T06:46:03;8.38;;;4.57;;
41693;SDS011;27377;50.666;9.150;2023-07-20T06:48:28;8.47;;;5.00;;
41693;SDS011;27377;50.666;9.150;2023-07-20T06:50:54;8.90;;;4.78;;
41693;SDS011;27377;50.666;9.150;2023-07-20T06:53:21;8.70;;;4.75;;
41693;SDS011;27377;50.666;9.150;2023-07-20T06:55:47;7.95;;;4.80;;
41693;SDS011;27377;50.666;9.150;2023-07-20T06:58:13;7.87;;;4.50;;
41693;SDS011;27377;50.666;9.150;2023-07-20T07:00:39;9.40;;;5.47;;
41693;SDS011;27377;50.666;9.150;2023-07-20T07:03:04;11.23;;;6.07;;
41693;SDS011;27377;50.666;9.150;2023-07-20T07:05:30;10.00;;;6.10;;
41693;SDS011;27377;50.666;9.150;2023-07-20T07:07:56;12.30;;;6.07;;
41693;SDS011;27377;50.666;9.150;2023-07-20T07:10:21;8.87;;;5.50;;
41693;SDS011;27377;50.666;9.150;2023-07-20T07:12:47;10.70;;;5.90;;
41693;SDS011;27377;50.666;9.150;2023-07-20T07:15:12;9.48;;;5.43;;
41693;SDS011;27377;50.666;9.150;2023-07-20T07:17:38;7.97;;;5.20;;
41693;SDS011;27377;50.666;9.150;2023-07-20T07:20:04;9.35;;;5.95;;
41693;SDS011;27377;50.666;9.150;2023-07-20T07:22:30;9.18;;;5.93;;
41693;SDS011;27377;50.666;9.150;2023-07-20T07:24:56;10.30;;;6.17;;
41693;SDS011;27377;50.666;9.150;2023-07-20T07:27:22;8.77;;;5.77;;
41693;SDS011;27377;50.666;9.150;2023-07-20T07:29:47;9.10;;;6.38;;
41693;SDS011;27377;50.666;9.150;2023-07-20T07:32:14;12.82;;;6.63;;
41693;SDS011;27377;50.666;9.150;2023-07-20T07:34:40;9.93;;;6.38;;
41693;SDS011;27377;50.666;9.150;2023-07-20T07:37:05;10.30;;;6.33;;
41693;SDS011;27377;50.666;9.150;2023-07-20T07:39:31;9.30;;;6.20;;
41693;SDS011;27377;50.666;9.150;2023-07-20T07:41:57;11.40;;;6.40;;
41693;SDS011;27377;50.666;9.150;2023-07-20T07:44:22;9.80;;;6.17;;
41693;SDS011;27377;50.666;9.150;2023-07-20T07:46:48;10.03;;;6.43;;
41693;SDS011;27377;50.666;9.150;2023-07-20T07:49:14;9.50;;;6.40;;
41693;SDS011;27377;50.666;9.150;2023-07-20T07:51:40;9.80;;;6.50;;
41693;SDS011;27377;50.666;9.150;2023-07-20T07:54:06;10.13;;;6.45;;
41693;SDS011;27377;50.666;9.150;2023-07-20T07:56:31;10.75;;;6.43;;
41693;SDS011;27377;50.666;9.150;2023-07-20T07:58:57;9.85;;;6.30;;
41693;SDS011;27377;50.666;9.150;2023-07-20T08:01:23;11.77;;;6.90;;
41693;SDS011;27377;50.666;9.150;2023-07-20T08:03:48;8.30;;;5.90;;
41693;SDS011;27377;50.666;9.150;2023-07-20T08:06:14;9.90;;;6.40;;
41693;SDS011;27377;50.666;9.150;2023-07-20T08:08:40;8.55;;;6.10;;
41693;SDS011;27377;50.666;9.150;2023-07-20T08:11:05;8.77;;;6.13;;
41693;SDS011;27377;50.666;9.150;2023-07-20T08:13:31;9.40;;;7.07;;
41693;SDS011;27377;50.666;9.150;2023-07-20T08:15:57;8.98;;;6.40;;
41693;SDS011;27377;50.666;9.150;2023-07-20T08:18:23;9.27;;;6.60;;
41693;SDS011;27377;50.666;9.150;2023-07-20T08:20:49;10.27;;;6.60;;
41693;SDS011;27377;50.666;9.150;2023-07-20T08:23:15;8.35;;;6.95;;
41693;SDS011;27377;50.666;9.150;2023-07-20T08:25:41;9.13;;;7.20;;
41693;SDS011;27377;50.666;9.150;2023-07-20T08:28:10;10.82;;;7.35;;
41693;SDS011;27377;50.666;9.150;2023-07-20T08:30:40;9.60;;;7.20;;
41693;SDS011;27377;50.666;9.150;2023-07-20T08:33:06;9.52;;;7.13;;
41693;SDS011;27377;50.666;9.150;2023-07-20T08:35:32;9.07;;;7.30;;
41693;SDS011;27377;50.666;9.150;2023-07-20T08:37:58;8.93;;;7.00;;
41693;SDS011;27377;50.666;9.150;2023-07-20T08:40:24;10.07;;;7.03;;
41693;SDS011;27377;50.666;9.150;2023-07-20T08:42:49;11.30;;;6.93;;
41693;SDS011;27377;50.666;9.150;2023-07-20T08:45:15;11.27;;;7.50;;
41693;SDS011;27377;50.666;9.150;2023-07-20T08:47:42;8.73;;;7.18;;
41693;SDS011;27377;50.666;9.150;2023-07-20T08:50:10;9.43;;;7.13;;
41693;SDS011;27377;50.666;9.150;2023-07-20T08:52:37;10.27;;;7.38;;
41693;SDS011;27377;50.666;9.150;2023-07-20T08:55:03;10.27;;;7.70;;
41693;SDS011;27377;50.666;9.150;2023-07-20T08:57:30;9.98;;;7.80;;
41693;SDS011;27377;50.666;9.150;2023-07-20T08:59:59;9.70;;;7.28;;
41693;SDS011;27377;50.666;9.150;2023-07-20T09:02:29;9.27;;;7.07;;
41693;SDS011;27377;50.666;9.150;2023-07-20T09:04:58;9.45;;;7.50;;
41693;SDS011;27377;50.666;9.150;2023-07-20T09:07:24;9.68;;;7.38;;
41693;SDS011;27377;50.666;9.150;2023-07-20T09:09:50;11.40;;;7.38;;
41693;SDS011;27377;50.666;9.150;2023-07-20T09:12:16;9.70;;;7.20;;
41693;SDS011;27377;50.666;9.150;2023-07-20T09:14:45;8.98;;;7.30;;
41693;SDS011;27377;50.666;9.150;2023-07-20T09:17:13;10.55;;;7.40;;
41693;SDS011;27377;50.666;9.150;2023-07-20T09:19:46;9.18;;;7.30;;
41693;SDS011;27377;50.666;9.150;2023-07-20T09:22:12;8.32;;;6.85;;
41693;SDS011;27377;50.666;9.150;2023-07-20T09:24:38;9.73;;;6.83;;
41693;SDS011;27377;50.666;9.150;2023-07-20T09:27:06;9.82;;;6.85;;
41693;SDS011;27377;50.666;9.150;2023-07-20T09:29:32;7.95;;;5.97;;
41693;SDS011;27377;50.666;9.150;2023-07-20T09:32:01;7.70;;;6.00;;
41693;SDS011;27377;50.666;9.150;2023-07-20T09:34:31;8.48;;;5.97;;
41693;SDS011;27377;50.666;9.150;2023-07-20T09:37:00;8.10;;;5.82;;
41693;SDS011;27377;50.666;9.150;2023-07-20T09:39:26;7.95;;;6.13;;
41693;SDS011;27377;50.666;9.150;2023-07-20T09:41:52;7.88;;;6.20;;
41693;SDS011;27377;50.666;9.150;2023-07-20T09:44:18;8.95;;;6.07;;
41693;SDS011;27377;50.666;9.150;2023-07-20T09:46:48;7.70;;;6.43;;
41693;SDS011;27377;50.666;9.150;2023-07-20T09:49:14;6.80;;;5.90;;
41693;SDS011;27377;50.666;9.150;2023-07-20T09:51:42;8.15;;;6.40;;
41693;SDS011;27377;50.666;9.150;2023-07-20T09:54:09;8.65;;;6.20;;
41693;SDS011;27377;50.666;9.150;2023-07-20T09:56:36;9.40;;;6.40;;
41693;SDS011;27377;50.666;9.150;2023-07-20T09:59:04;8.15;;;5.82;;
41693;SDS011;27377;50.666;9.150;2023-07-20T10:01:29;6.90;;;5.90;;
41693;SDS011;27377;50.666;9.150;2023-07-20T10:03:58;9.27;;;6.20;;
41693;SDS011;27377;50.666;9.150;2023-07-20T10:06:26;7.88;;;5.63;;
41693;SDS011;27377;50.666;9.150;2023-07-20T10:08:55;6.43;;;5.53;;
41693;SDS011;27377;50.666;9.150;2023-07-20T10:11:25;6.90;;;5.20;;
41693;SDS011;27377;50.666;9.150;2023-07-20T10:13:54;8.93;;;5.43;;
41693;SDS011;27377;50.666;9.150;2023-07-20T10:16:31;11.13;;;4.90;;
41693;SDS011;27377;50.666;9.150;2023-07-20T10:19:11;6.55;;;4.47;;
41693;SDS011;27377;50.666;9.150;2023-07-20T10:21:47;8.13;;;4.85;;
41693;SDS011;27377;50.666;9.150;2023-07-20T10:24:16;8.13;;;4.80;;
41693;SDS011;27377;50.666;9.150;2023-07-20T10:26:43;8.27;;;4.53;;
41693;SDS011;27377;50.666;9.150;2023-07-20T10:29:08;7.35;;;4.50;;
41693;SDS011;27377;50.666;9.150;2023-07-20T10:31:35;7.40;;;4.20;;
41693;SDS011;27377;50.666;9.150;2023-07-20T10:34:02;7.78;;;4.18;;
41693;SDS011;27377;50.666;9.150;2023-07-20T10:36:29;6.67;;;4.40;;
41693;SDS011;27377;50.666;9.150;2023-07-20T10:38:55;6.80;;;4.33;;
41693;SDS011;27377;50.666;9.150;2023-07-20T10:41:28;7.28;;;4.53;;
41693;SDS011;27377;50.666;9.150;2023-07-20T10:44:01;5.25;;;3.40;;
41693;SDS011;27377;50.666;9.150;2023-07-20T10:49:10;5.40;;;3.10;;
41693;SDS011;27377;50.666;9.150;2023-07-20T10:51:46;4.40;;;3.00;;
41693;SDS011;27377;50.666;9.150;2023-07-20T10:56:42;4.77;;;2.90;;
41693;SDS011;27377;50.666;9.150;2023-07-20T10:59:18;4.10;;;2.70;;
41693;SDS011;27377;50.666;9.150;2023-07-20T11:01:47;5.57;;;2.75;;
41693;SDS011;27377;50.666;9.150;2023-07-20T11:04:16;5.90;;;2.88;;
41693;SDS011;27377;50.666;9.150;2023-07-20T11:06:44;6.10;;;2.85;;
41693;SDS011;27377;50.666;9.150;2023-07-20T11:09:14;5.97;;;2.78;;
41693;SDS011;27377;50.666;9.150;2023-07-20T11:11:43;5.38;;;3.20;;
41693;SDS011;27377;50.666;9.150;2023-07-20T11:14:23;4.70;;;2.80;;
41693;SDS011;27377;50.666;9.150;2023-07-20T11:16:50;4.60;;;2.72;;
41693;SDS011;27377;50.666;9.150;2023-07-20T11:19:19;4.53;;;2.87;;
41693;SDS011;27377;50.666;9.150;2023-07-20T11:21:55;3.75;;;2.47;;
41693;SDS011;27377;50.666;9.150;2023-07-20T11:24:22;3.92;;;2.60;;
41693;SDS011;27377;50.666;9.150;2023-07-20T11:26:49;5.53;;;2.80;;
41693;SDS011;27377;50.666;9.150;2023-07-20T11:29:16;4.03;;;2.60;;
41693;SDS011;27377;50.666;9.150;2023-07-20T11:31:43;3.35;;;2.40;;
41693;SDS011;27377;50.666;9.150;2023-07-20T11:34:19;4.00;;;2.45;;
41693;SDS011;27377;50.666;9.150;2023-07-20T11:36:46;4.78;;;2.50;;
41693;SDS011;27377;50.666;9.150;2023-07-20T11:39:14;3.92;;;2.42;;
41693;SDS011;27377;50.666;9.150;2023-07-20T11:41:45;4.60;;;2.50;;
41693;SDS011;27377;50.666;9.150;2023-07-20T11:44:12;4.03;;;2.50;;
41693;SDS011;27377;50.666;9.150;2023-07-20T11:46:40;4.57;;;2.38;;
41693;SDS011;27377;50.666;9.150;2023-07-20T11:49:07;3.67;;;2.40;;
41693;SDS011;27377;50.666;9.150;2023-07-20T11:51:33;4.23;;;2.50;;
41693;SDS011;27377;50.666;9.150;2023-07-20T11:54:01;4.15;;;2.70;;
41693;SDS011;27377;50.666;9.150;2023-07-20T11:56:27;4.28;;;2.60;;
41693;SDS011;27377;50.666;9.150;2023-07-20T11:58:57;5.40;;;2.50;;
41693;SDS011;27377;50.666;9.150;2023-07-20T12:01:28;3.92;;;2.45;;
41693;SDS011;27377;50.666;9.150;2023-07-20T12:03:57;3.97;;;2.60;;
41693;SDS011;27377;50.666;9.150;2023-07-20T12:06:25;3.47;;;2.30;;
41693;SDS011;27377;50.666;9.150;2023-07-20T12:08:56;3.33;;;2.30;;
41693;SDS011;27377;50.666;9.150;2023-07-20T12:11:35;3.42;;;2.22;;
41693;SDS011;27377;50.666;9.150;2023-07-20T12:14:08;4.20;;;2.25;;
41693;SDS011;27377;50.666;9.150;2023-07-20T12:16:35;3.63;;;2.25;;
41693;SDS011;27377;50.666;9.150;2023-07-20T12:19:03;4.38;;;2.10;;
41693;SDS011;27377;50.666;9.150;2023-07-20T12:21:31;3.95;;;2.40;;
41693;SDS011;27377;50.666;9.150;2023-07-20T12:23:58;3.72;;;2.30;;
41693;SDS011;27377;50.666;9.150;2023-07-20T12:26:25;3.78;;;2.30;;
41693;SDS011;27377;50.666;9.150;2023-07-20T12:28:51;3.97;;;2.13;;
41693;SDS011;27377;50.666;9.150;2023-07-20T12:31:18;3.20;;;2.20;;
41693;SDS011;27377;50.666;9.150;2023-07-20T12:33:43;2.78;;;2.10;;
41693;SDS011;27377;50.666;9.150;2023-07-20T12:36:09;3.03;;;2.08;;
41693;SDS011;27377;50.666;9.150;2023-07-20T12:38:35;3.80;;;2.10;;
41693;SDS011;27377;50.666;9.150;2023-07-20T12:41:01;4.33;;;2.60;;
41693;SDS011;27377;50.666;9.150;2023-07-20T12:43:27;4.55;;;2.30;;
41693;SDS011;27377;50.666;9.150;2023-07-20T12:45:53;8.07;;;2.50;;
41693;SDS011;27377;50.666;9.150;2023-07-20T12:48:19;9.30;;;2.70;;
41693;SDS011;27377;50.666;9.150;2023-07-20T12:50:45;5.00;;;2.60;;
41693;SDS011;27377;50.666;9.150;2023-07-20T12:53:11;3.75;;;2.30;;
41693;SDS011;27377;50.666;9.150;2023-07-20T12:55:37;6.20;;;2.50;;
41693;SDS011;27377;50.666;9.150;2023-07-20T12:58:03;3.80;;;2.88;;
41693;SDS011;27377;50.666;9.150;2023-07-20T13:00:29;4.80;;;2.57;;
41693;SDS011;27377;50.666;9.150;2023-07-20T13:02:54;3.78;;;2.33;;
41693;SDS011;27377;50.666;9.150;2023-07-20T13:05:20;5.90;;;2.85;;
41693;SDS011;27377;50.666;9.150;2023-07-20T13:07:45;4.35;;;2.30;;
41693;SDS011;27377;50.666;9.150;2023-07-20T13:10:11;3.67;;;2.60;;
41693;SDS011;27377;50.666;9.150;2023-07-20T13:12:37;3.77;;;2.60;;
41693;SDS011;27377;50.666;9.150;2023-07-20T13:15:04;3.25;;;2.53;;
41693;SDS011;27377;50.666;9.150;2023-07-20T13:17:31;7.45;;;2.70;;
41693;SDS011;27377;50.666;9.150;2023-07-20T13:19:58;4.60;;;2.40;;
41693;SDS011;27377;50.666;9.150;2023-07-20T13:22:24;3.10;;;2.38;;
41693;SDS011;27377;50.666;9.150;2023-07-20T13:24:49;4.40;;;2.40;;
41693;SDS011;27377;50.666;9.150;2023-07-20T13:27:16;4.53;;;2.60;;
41693;SDS011;27377;50.666;9.150;2023-07-20T13:29:43;3.72;;;2.50;;
41693;SDS011;27377;50.666;9.150;2023-07-20T13:32:08;4.57;;;2.50;;
41693;SDS011;27377;50.666;9.150;2023-07-20T13:34:34;3.90;;;2.70;;
41693;SDS011;27377;50.666;9.150;2023-07-20T13:37:00;3.47;;;2.58;;
41693;SDS011;27377;50.666;9.150;2023-07-20T13:39:29;4.28;;;2.40;;
41693;SDS011;27377;50.666;9.150;2023-07-20T13:41:54;3.60;;;2.70;;
41693;SDS011;27377;50.666;9.150;2023-07-20T13:44:20;4.22;;;2.80;;
41693;SDS011;27377;50.666;9.150;2023-07-20T13:46:46;4.40;;;2.80;;
41693;SDS011;27377;50.666;9.150;2023-07-20T13:49:12;4.25;;;2.70;;
41693;SDS011;27377;50.666;9.150;2023-07-20T13:51:38;3.83;;;2.70;;
41693;SDS011;27377;50.666;9.150;2023-07-20T13:54:05;4.72;;;3.10;;
41693;SDS011;27377;50.666;9.150;2023-07-20T13:56:31;4.63;;;2.83;;
41693;SDS011;27377;50.666;9.150;2023-07-20T13:58:56;6.00;;;2.90;;
41693;SDS011;27377;50.666;9.150;2023-07-20T14:01:22;4.87;;;2.80;;
41693;SDS011;27377;50.666;9.150;2023-07-20T14:03:49;4.30;;;2.70;;
41693;SDS011;27377;50.666;9.150;2023-07-20T14:06:15;4.45;;;3.00;;
41693;SDS011;27377;50.666;9.150;2023-07-20T14:08:41;5.00;;;2.80;;
41693;SDS011;27377;50.666;9.150;2023-07-20T14:11:07;4.40;;;2.97;;
41693;SDS011;27377;50.666;9.150;2023-07-20T14:13:32;3.70;;;2.70;;
41693;SDS011;27377;50.666;9.150;2023-07-20T14:15:58;4.37;;;2.47;;
41693;SDS011;27377;50.666;9.150;2023-07-20T14:18:24;4.23;;;2.60;;
41693;SDS011;27377;50.666;9.150;2023-07-20T14:20:49;4.90;;;2.90;;
41693;SDS011;27377;50.666;9.150;2023-07-20T14:23:15;4.57;;;2.53;;
41693;SDS011;27377;50.666;9.150;2023-07-20T14:25:40;4.57;;;2.60;;
41693;SDS011;27377;50.666;9.150;2023-07-20T14:28:07;3.63;;;2.50;;
41693;SDS011;27377;50.666;9.150;2023-07-20T14:30:33;3.80;;;2.40;;
41693;SDS011;27377;50.666;9.150;2023-07-20T14:32:58;3.80;;;2.60;;
41693;SDS011;27377;50.666;9.150;2023-07-20T14:35:24;4.07;;;2.50;;
41693;SDS011;27377;50.666;9.150;2023-07-20T14:37:49;4.07;;;2.50;;
41693;SDS011;27377;50.666;9.150;2023-07-20T14:40:15;4.27;;;2.40;;
41693;SDS011;27377;50.666;9.150;2023-07-20T14:42:41;3.23;;;2.33;;
41693;SDS011;27377;50.666;9.150;2023-07-20T14:45:06;4.23;;;2.50;;
41693;SDS011;27377;50.666;9.150;2023-07-20T14:47:33;3.88;;;2.47;;
41693;SDS011;27377;50.666;9.150;2023-07-20T14:50:03;3.07;;;2.10;;
41693;SDS011;27377;50.666;9.150;2023-07-20T14:52:29;3.58;;;2.30;;
41693;SDS011;27377;50.666;9.150;2023-07-20T14:54:55;3.50;;;2.30;;
41693;SDS011;27377;50.666;9.150;2023-07-20T14:57:21;4.00;;;2.50;;
41693;SDS011;27377;50.666;9.150;2023-07-20T14:59:49;4.30;;;2.63;;
41693;SDS011;27377;50.666;9.150;2023-07-20T15:02:15;4.60;;;2.60;;
41693;SDS011;27377;50.666;9.150;2023-07-20T15:04:50;3.75;;;2.50;;
41693;SDS011;27377;50.666;9.150;2023-07-20T15:07:19;3.73;;;2.60;;
41693;SDS011;27377;50.666;9.150;2023-07-20T15:09:49;4.32;;;2.90;;
41693;SDS011;27377;50.666;9.150;2023-07-20T15:12:15;4.15;;;3.10;;
41693;SDS011;27377;50.666;9.150;2023-07-20T15:14:41;3.80;;;2.90;;
41693;SDS011;27377;50.666;9.150;2023-07-20T15:17:08;4.25;;;2.80;;
41693;SDS011;27377;50.666;9.150;2023-07-20T15:19:37;4.35;;;2.78;;